createdAt,value
2018-08-07T00:01:56.862Z,99412.95
2018-08-07T00:04:28.225Z,99417.28
2018-08-07T00:06:59.477Z,99406.82
2018-08-07T00:09:32.025Z,99403.48
2018-08-07T00:12:04.142Z,99404.82
2018-08-07T00:14:36.458Z,99401.05
2018-08-07T00:17:09.226Z,99386.42
2018-08-07T00:19:40.565Z,99389.41
2018-08-07T00:22:13.851Z,99392.45
2018-08-07T00:24:46.446Z,99393.34
2018-08-07T00:27:19.057Z,99388.33
2018-08-07T00:29:50.348Z,99384.70
2018-08-07T00:32:21.952Z,99378.23
2018-08-07T00:34:53.395Z,99384.81
2018-08-07T00:37:24.755Z,99375.92
2018-08-07T00:39:57.343Z,99380.69
2018-08-07T00:42:28.883Z,99385.98
2018-08-07T00:45:00.277Z,99382.52
2018-08-07T00:47:31.604Z,99382.87
2018-08-07T00:50:02.944Z,99380.79
2018-08-07T00:52:34.758Z,99385.89
2018-08-07T00:55:07.867Z,99381.50
2018-08-07T00:57:39.227Z,99388.44
2018-08-07T01:00:17.731Z,99378.60
2018-08-07T01:02:49.081Z,99373.88
2018-08-07T01:05:20.645Z,99376.09
2018-08-07T01:07:52.952Z,99368.48
2018-08-07T01:10:24.304Z,99366.17
2018-08-07T01:12:55.925Z,99370.66
2018-08-07T01:15:28.077Z,99361.89
2018-08-07T01:18:00.276Z,99369.23
2018-08-07T01:20:33.434Z,99372.54
2018-08-07T01:23:05.047Z,99374.56
2018-08-07T01:25:36.616Z,99377.87
2018-08-07T01:28:08.312Z,99372.31
2018-08-07T01:30:40.424Z,99368.66
2018-08-07T01:33:12.380Z,99374.16
2018-08-07T01:35:43.745Z,99374.95
2018-08-07T01:38:15.318Z,99364.67
2018-08-07T01:40:46.588Z,99373.73
2018-08-07T01:43:18.514Z,99367.47
2018-08-07T01:45:50.314Z,99370.36
2018-08-07T01:48:21.604Z,99362.59
2018-08-07T01:50:52.933Z,99364.06
2018-08-07T01:53:24.735Z,99363.78
2018-08-07T01:55:56.108Z,99369.69
2018-08-07T01:58:27.377Z,99363.38
2018-08-07T02:00:59.041Z,99349.44
2018-08-07T02:03:30.446Z,99356.75
2018-08-07T02:06:01.962Z,99346.78
2018-08-07T02:08:33.650Z,99353.35
2018-08-07T02:11:04.966Z,99357.07
2018-08-07T02:13:37.455Z,99351.27
2018-08-07T02:16:09.079Z,99353.77
2018-08-07T02:18:40.392Z,99360.63
2018-08-07T02:21:11.994Z,99349.98
2018-08-07T02:23:43.901Z,99358.66
2018-08-07T02:26:15.224Z,99361.17
2018-08-07T02:28:46.553Z,99357.80
2018-08-07T02:31:18.202Z,99350.36
2018-08-07T02:33:51.548Z,99353.03
2018-08-07T02:36:23.028Z,99350.28
2018-08-07T02:38:54.462Z,99349.80
2018-08-07T02:41:26.137Z,99350.91
2018-08-07T02:43:58.506Z,99345.86
2018-08-07T02:46:29.608Z,99342.02
2018-08-07T02:49:01.347Z,99350.82
2018-08-07T02:51:33.316Z,99350.80
2018-08-07T02:54:05.206Z,99340.81
2018-08-07T02:56:36.555Z,99350.89
2018-08-07T02:59:09.428Z,99352.41
2018-08-07T03:01:41.447Z,99348.59
2018-08-07T03:04:14.386Z,99343.70
2018-08-07T03:06:46.072Z,99348.94
2018-08-07T03:09:18.327Z,99270.86
2018-08-07T03:11:50.953Z,99337.74
2018-08-07T03:14:22.328Z,99351.80
2018-08-07T03:16:52.770Z,99350.86
2018-08-07T03:19:23.745Z,99352.69
2018-08-07T03:21:56.140Z,99359.89
2018-08-07T03:24:28.597Z,99356.06
2018-08-07T03:27:00.237Z,99356.36
2018-08-07T03:29:31.630Z,99360.69
2018-08-07T03:32:03.462Z,99364.73
2018-08-07T03:34:35.829Z,99368.63
2018-08-07T03:37:07.215Z,99373.28
2018-08-07T03:39:38.947Z,99388.77
2018-08-07T03:42:10.308Z,99397.03
2018-08-07T03:44:42.677Z,99390.59
2018-08-07T03:47:15.228Z,99382.33
2018-08-07T03:49:47.343Z,99387.42
2018-08-07T03:52:19.122Z,99384.86
2018-08-07T03:54:51.335Z,99371.06
2018-08-07T03:57:22.745Z,99399.94
2018-08-07T03:59:55.045Z,99379.83
2018-08-07T04:02:27.996Z,99391.08
2018-08-07T04:05:00.592Z,99395.59
2018-08-07T04:07:33.116Z,99393.79
2018-08-07T04:10:07.445Z,99388.39
2018-08-07T04:12:38.478Z,99397.76
2018-08-07T04:15:18.825Z,99386.50
2018-08-07T04:17:53.687Z,99400.69
2018-08-07T04:20:26.359Z,99401.97
2018-08-07T04:22:56.870Z,99406.63
2018-08-07T04:25:29.543Z,99412.92
2018-08-07T04:28:01.760Z,99408.44
2018-08-07T04:30:34.221Z,99399.52
2018-08-07T04:33:07.910Z,99407.86
2018-08-07T04:35:39.317Z,99410.84
2018-08-07T04:38:13.935Z,99405.67
2018-08-07T04:40:44.878Z,99408.41
2018-08-07T04:43:15.379Z,99407.21
2018-08-07T04:45:46.790Z,99410.98
2018-08-07T04:48:18.186Z,99413.13
2018-08-07T04:50:50.584Z,99411.88
2018-08-07T04:53:23.550Z,99411.25
2018-08-07T04:55:55.464Z,99417.16
2018-08-07T04:58:26.884Z,99418.92
2018-08-07T05:00:58.719Z,99413.91
2018-08-07T05:03:32.140Z,99412.36
2018-08-07T05:06:04.207Z,99408.55
2018-08-07T05:08:35.835Z,99417.02
2018-08-07T05:11:08.142Z,99420.63
2018-08-07T05:13:40.428Z,99424.56
2018-08-07T05:16:13.960Z,99423.39
2018-08-07T05:18:46.467Z,99427.79
2018-08-07T05:21:17.833Z,99434.79
2018-08-07T05:23:49.552Z,99444.94
2018-08-07T05:26:20.902Z,99445.97
2018-08-07T05:28:52.267Z,99441.77
2018-08-07T05:31:22.786Z,99431.84
2018-08-07T05:33:55.360Z,99434.14
2018-08-07T05:39:02.042Z,99426.05
2018-08-07T05:41:33.173Z,99442.89
2018-08-07T05:44:04.163Z,99438.33
2018-08-07T05:46:35.830Z,99447.30
2018-08-07T05:49:07.213Z,99450.44
2018-08-07T05:51:39.399Z,99435.39
2018-08-07T05:54:11.711Z,99423.47
2018-08-07T05:56:44.014Z,99433.62
2018-08-07T05:59:15.719Z,99364.28
2018-08-07T06:01:46.247Z,99429.94
2018-08-07T06:04:16.872Z,99432.18
2018-08-07T06:06:49.661Z,99439.40
2018-08-07T06:09:21.250Z,99444.59
2018-08-07T06:11:53.595Z,99448.55
2018-08-07T06:14:24.124Z,99438.09
2018-08-07T06:16:56.485Z,99440.19
2018-08-07T06:19:30.074Z,99435.86
2018-08-07T06:22:00.904Z,99422.13
2018-08-07T06:24:33.249Z,99432.53
2018-08-07T06:27:04.130Z,99447.90
2018-08-07T06:29:35.213Z,99446.41
2018-08-07T06:32:05.726Z,99458.02
2018-08-07T06:34:38.023Z,99450.28
2018-08-07T06:37:10.837Z,99452.75
2018-08-07T06:39:46.698Z,99445.34
2018-08-07T06:42:17.739Z,99447.58
2018-08-07T06:44:51.947Z,99452.23
2018-08-07T06:47:23.522Z,99445.98
2018-08-07T06:50:02.945Z,99452.77
2018-08-07T06:52:35.385Z,99452.98
2018-08-07T06:55:06.850Z,99453.18
2018-08-07T06:57:37.792Z,99451.17
2018-08-07T07:00:24.587Z,99453.86
2018-08-07T07:02:57.300Z,99452.33
2018-08-07T07:05:30.044Z,99443.34
2018-08-07T07:08:03.252Z,99450.22
2018-08-07T07:10:33.752Z,99386.57
2018-08-07T07:13:04.726Z,99447.05
2018-08-07T07:15:35.325Z,99451.89
2018-08-07T07:18:08.901Z,99448.64
2018-08-07T07:20:39.788Z,99452.70
2018-08-07T07:23:11.314Z,99452.55
2018-08-07T07:25:42.535Z,99450.78
2018-08-07T07:28:13.402Z,99467.39
2018-08-07T07:30:44.233Z,99454.87
2018-08-07T07:33:16.177Z,99463.83
2018-08-07T07:35:48.718Z,99471.73
2018-08-07T07:38:19.102Z,99454.28
2018-08-07T07:40:50.577Z,99474.72
2018-08-07T07:43:22.524Z,99458.38
2018-08-07T07:45:53.108Z,99467.06
2018-08-07T07:48:23.343Z,99458.81
2018-08-07T07:50:56.310Z,99459.89
2018-08-07T07:53:27.326Z,99458.27
2018-08-07T07:56:02.255Z,99452.83
2018-08-07T07:58:34.306Z,99385.19
2018-08-07T08:01:09.722Z,99456.74
2018-08-07T08:03:43.251Z,99458.38
2018-08-07T08:06:15.369Z,99452.91
2018-08-07T08:08:49.118Z,99450.23
2018-08-07T08:11:22.345Z,99447.63
2018-08-07T08:13:54.966Z,99453.16
2018-08-07T08:16:26.099Z,99454.73
2018-08-07T08:18:58.784Z,99447.05
2018-08-07T08:21:32.152Z,99449.77
2018-08-07T08:24:08.519Z,99438.55
2018-08-07T08:26:48.527Z,99442.59
2018-08-07T08:29:21.307Z,99440.72
2018-08-07T08:31:56.229Z,99435.69
2018-08-07T08:34:27.304Z,99440.05
2018-08-07T08:36:59.794Z,99440.00
2018-08-07T08:39:33.644Z,99440.25
2018-08-07T08:42:07.822Z,99430.77
2018-08-07T08:44:41.120Z,99432.72
2018-08-07T08:47:12.007Z,99435.59
2018-08-07T08:49:52.310Z,99431.15
2018-08-07T08:52:58.451Z,99424.74
2018-08-07T08:55:41.306Z,99423.80
2018-08-07T08:58:13.917Z,99417.44
2018-08-07T09:00:48.085Z,99433.60
2018-08-07T09:03:19.329Z,99420.70
2018-08-07T09:05:52.217Z,99412.14
2018-08-07T09:08:24.618Z,99416.38
2018-08-07T09:10:58.437Z,99405.78
2018-08-07T09:13:34.420Z,99420.48
2018-08-07T09:16:21.600Z,99412.30
2018-08-07T09:18:56.378Z,99396.08
2018-08-07T09:21:37.705Z,99410.83
2018-08-07T09:24:31.693Z,99405.83
2018-08-07T09:27:23.961Z,99403.64
2018-08-07T09:29:58.341Z,99399.89
2018-08-07T09:32:36.884Z,99402.09
2018-08-07T09:35:14.252Z,99394.58
2018-08-07T09:37:48.569Z,99389.78
2018-08-07T09:40:24.725Z,99380.76
2018-08-07T09:43:08.749Z,99383.89
2018-08-07T09:46:10.486Z,99389.98
2018-08-07T09:48:48.823Z,99383.70
2018-08-07T09:51:25.732Z,99372.01
2018-08-07T09:54:06.105Z,99376.55
2018-08-07T09:56:51.339Z,99376.20
2018-08-07T09:59:30.898Z,99384.56
2018-08-07T10:02:12.795Z,99381.09
2018-08-07T10:04:48.532Z,99382.66
2018-08-07T10:07:35.454Z,99375.37
2018-08-07T10:10:22.547Z,99378.15
2018-08-07T10:13:05.535Z,99371.17
2018-08-07T10:16:17.300Z,99363.55
2018-08-07T10:19:38.354Z,99367.89
2018-08-07T10:22:21.223Z,99361.27
2018-08-07T10:24:52.928Z,99364.73
2018-08-07T10:27:25.172Z,99359.87
2018-08-07T10:29:59.197Z,99349.89
2018-08-07T10:32:31.420Z,99340.03
2018-08-07T10:35:03.526Z,99346.69
2018-08-07T10:37:34.548Z,99337.42
2018-08-07T10:40:08.201Z,99342.86
2018-08-07T10:42:41.974Z,99329.42
2018-08-07T10:45:17.994Z,99264.20
2018-08-07T10:47:48.592Z,99331.45
2018-08-07T10:54:02.428Z,99325.06
2018-08-07T10:56:33.967Z,99323.63
2018-08-07T10:59:07.426Z,99316.70
2018-08-07T11:01:39.558Z,99304.91
2018-08-07T11:04:12.599Z,99299.89
2018-08-07T11:06:46.568Z,99307.55
2018-08-07T11:09:16.445Z,99302.70
2018-08-07T11:11:51.298Z,99292.66
2018-08-07T11:14:23.677Z,99295.67
2018-08-07T11:16:54.202Z,99300.03
2018-08-07T11:19:25.001Z,99294.42
2018-08-07T11:21:56.403Z,99289.69
2018-08-07T11:24:32.007Z,99223.67
2018-08-07T11:27:08.276Z,99288.05
2018-08-07T11:29:40.316Z,99276.63
2018-08-07T11:32:16.619Z,99288.47
2018-08-07T11:34:46.702Z,99286.55
2018-08-07T11:37:18.252Z,99263.62
2018-08-07T11:39:47.991Z,99276.73
2018-08-07T11:42:21.112Z,99278.94
2018-08-07T11:44:54.010Z,99279.92
2018-08-07T11:47:31.142Z,99275.69
2018-08-07T11:50:01.431Z,99267.03
2018-08-07T11:52:32.494Z,99246.73
2018-08-07T11:55:03.638Z,99277.23
2018-08-07T11:57:34.406Z,99270.81
2018-08-07T12:03:00.141Z,99272.20
2018-08-07T12:05:36.641Z,99264.13
2018-08-07T12:08:08.940Z,99258.61
2018-08-07T12:10:44.824Z,99260.84
2018-08-07T12:13:17.684Z,99249.78
2018-08-07T12:15:49.320Z,99250.69
2018-08-07T12:18:19.806Z,99246.03
2018-08-07T12:20:50.393Z,99241.67
2018-08-07T12:23:24.053Z,99233.22
2018-08-07T12:25:55.375Z,99232.30
2018-08-07T12:28:28.113Z,99230.34
2018-08-07T12:31:00.914Z,99231.41
2018-08-07T12:33:32.075Z,99223.66
2018-08-07T12:36:03.272Z,99230.06
2018-08-07T12:38:32.666Z,99236.70
2018-08-07T12:41:02.199Z,99225.44
2018-08-07T12:43:32.955Z,99221.17
2018-08-07T12:46:03.239Z,99221.78
2018-08-07T12:48:37.293Z,99212.58
2018-08-07T12:51:08.127Z,99142.73
2018-08-07T12:53:40.183Z,99207.82
2018-08-07T12:56:13.055Z,99209.51
2018-08-07T12:58:43.901Z,99207.20
2018-08-07T13:01:16.690Z,99208.09
2018-08-07T13:03:48.644Z,99201.16
2018-08-07T13:06:19.697Z,99202.61
2018-08-07T13:08:55.096Z,99205.59
2018-08-07T13:11:24.730Z,99206.44
2018-08-07T13:13:58.464Z,99213.61
2018-08-07T13:16:31.764Z,99211.38
2018-08-07T13:19:01.620Z,99217.19
2018-08-07T13:21:36.500Z,99210.09
2018-08-07T13:24:06.065Z,99210.56
2018-08-07T13:26:37.093Z,99201.23
2018-08-07T13:29:12.092Z,99200.77
2018-08-07T13:31:43.451Z,99206.81
2018-08-07T13:34:13.032Z,99218.27
2018-08-07T13:36:48.692Z,99217.74
2018-08-07T13:39:18.517Z,99217.45
2018-08-07T13:41:50.191Z,99154.98
2018-08-07T13:44:24.305Z,99203.55
2018-08-07T13:46:56.097Z,99202.14
2018-08-07T13:49:29.097Z,99203.01
2018-08-07T13:52:01.335Z,99200.36
2018-08-07T18:25:57.741Z,99147.79
2018-08-07T18:28:28.773Z,99139.37
2018-08-07T18:30:58.098Z,99141.86
2018-08-07T18:33:30.745Z,99135.58
2018-08-07T18:36:08.519Z,99135.08
2018-08-07T18:38:49.771Z,99124.56
2018-08-07T18:41:36.764Z,99129.70
2018-08-07T18:44:07.961Z,99122.58
2018-08-07T18:46:39.955Z,99120.98
2018-08-07T18:49:13.207Z,99123.84
2018-08-07T18:51:43.438Z,99115.55
2018-08-07T18:54:17.502Z,99126.16
2018-08-07T18:56:51.559Z,99127.92
2018-08-07T18:59:20.934Z,99133.63
2018-08-07T19:01:50.837Z,99135.30
2018-08-07T19:04:22.501Z,99143.25
2018-08-07T19:06:53.151Z,99146.88
2018-08-07T19:09:29.731Z,99149.97
2018-08-07T19:12:01.932Z,99166.57
2018-08-07T19:14:32.164Z,99160.06
2018-08-07T19:17:04.959Z,99170.59
2018-08-07T19:19:35.070Z,99182.70
2018-08-07T19:22:07.509Z,99184.38
2018-08-07T19:24:37.401Z,99181.98
2018-08-07T19:27:09.244Z,99177.16
2018-08-07T19:29:40.220Z,99175.53
2018-08-07T19:32:11.716Z,99191.27
2018-08-07T19:34:47.681Z,99191.49
2018-08-07T19:37:19.721Z,99202.17
2018-08-07T19:39:50.579Z,99202.86
2018-08-07T19:42:31.248Z,99138.41
2018-08-07T19:45:01.388Z,99209.53
2018-08-07T19:47:34.590Z,99211.30
2018-08-07T19:50:13.562Z,99208.52
2018-08-07T19:52:44.817Z,99211.42
2018-08-07T19:55:17.896Z,99205.19
2018-08-07T19:57:53.037Z,99204.80
2018-08-07T20:00:27.106Z,99208.52
2018-08-07T20:02:59.846Z,99213.69
2018-08-07T20:05:33.139Z,99215.76
2018-08-07T20:08:04.664Z,99226.43
2018-08-07T20:10:37.096Z,99225.28
2018-08-07T20:13:23.553Z,99230.52
2018-08-07T20:15:58.336Z,99231.50
2018-08-07T20:18:31.746Z,99240.61
2018-08-07T20:21:02.429Z,99241.41
2018-08-07T20:23:38.106Z,99239.19
2018-08-07T20:26:12.104Z,99236.73
2018-08-07T20:28:44.544Z,99232.55
2018-08-07T20:31:18.538Z,99228.72
2018-08-07T20:33:49.789Z,99230.22
2018-08-07T20:36:22.099Z,99226.06
2018-08-07T20:38:52.825Z,99234.24
2018-08-07T20:41:23.485Z,99180.16
2018-08-07T20:43:56.160Z,99247.69
2018-08-07T20:46:27.932Z,99248.03
2018-08-07T20:49:03.820Z,99259.53
2018-08-07T20:51:38.607Z,99261.95
2018-08-07T20:54:10.985Z,99253.56
2018-08-07T20:56:44.643Z,99263.45
2018-08-07T20:59:22.622Z,99261.31
2018-08-07T21:01:53.026Z,99257.69
2018-08-07T21:04:25.875Z,99264.08
2018-08-07T21:06:56.453Z,99271.27
2018-08-07T21:09:26.415Z,99264.75
2018-08-07T21:11:57.560Z,99258.33
2018-08-07T21:14:30.319Z,99247.51
2018-08-07T21:17:02.582Z,99244.99
2018-08-07T21:19:35.491Z,99253.47
2018-08-07T21:22:07.769Z,99248.73
2018-08-07T21:24:38.465Z,99245.19
2018-08-07T21:27:08.432Z,99246.84
2018-08-07T21:32:16.850Z,99241.27
2018-08-07T21:34:48.644Z,99233.22
2018-08-07T21:37:18.707Z,99226.52
2018-08-07T21:39:49.208Z,99219.19
2018-08-07T21:42:19.344Z,99214.49
2018-08-07T21:44:50.588Z,99211.77
2018-08-07T21:47:20.647Z,99216.25
2018-08-07T21:49:52.555Z,99217.61
2018-08-07T21:52:22.585Z,99213.77
2018-08-07T21:54:53.260Z,99208.03
2018-08-07T21:57:24.562Z,99203.22
2018-08-07T21:59:55.248Z,99198.14
2018-08-07T22:02:26.820Z,99195.03
2018-08-07T22:04:58.759Z,99185.03
2018-08-07T22:07:35.300Z,99192.66
2018-08-07T22:10:05.772Z,99190.17
2018-08-07T22:12:39.281Z,99180.69
2018-08-07T22:15:09.360Z,99185.04
2018-08-07T22:17:40.074Z,99165.76
2018-08-07T22:20:13.115Z,99167.81
2018-08-07T22:22:44.149Z,99175.48
2018-08-07T22:25:15.586Z,99155.36
2018-08-07T22:27:46.311Z,99159.86
2018-08-07T22:30:22.509Z,99163.24
2018-08-07T22:32:54.806Z,99163.15
2018-08-07T22:35:29.659Z,99153.95
2018-08-07T22:38:00.448Z,99146.83
2018-08-07T22:40:30.600Z,99141.79
2018-08-07T22:43:00.513Z,99130.99
2018-08-07T22:45:30.523Z,99129.30
2018-08-07T22:48:02.543Z,99133.63
2018-08-07T22:50:33.213Z,99125.36
2018-08-07T22:53:05.489Z,99120.66
2018-08-07T22:55:35.967Z,99105.05
2018-08-07T22:58:06.723Z,99107.64
2018-08-07T23:00:36.263Z,99088.03
2018-08-07T23:03:07.382Z,99080.79
2018-08-07T23:05:36.883Z,99070.84
2018-08-07T23:08:09.786Z,99066.07
2018-08-07T23:10:42.537Z,99066.07
2018-08-07T23:13:16.054Z,99057.09
2018-08-07T23:15:48.500Z,99050.41
2018-08-07T23:18:18.463Z,99052.05
2018-08-07T23:20:50.247Z,99053.45
2018-08-07T23:23:22.336Z,99048.27
2018-08-07T23:25:53.378Z,99042.06
2018-08-07T23:28:24.938Z,99045.90
2018-08-07T23:30:55.051Z,99041.27
2018-08-07T23:33:31.702Z,99039.01
2018-08-07T23:36:02.226Z,99041.83
2018-08-07T23:38:32.243Z,99041.27
2018-08-07T23:41:02.551Z,99038.20
2018-08-07T23:43:37.109Z,99051.41
2018-08-07T23:46:08.610Z,99041.11
2018-08-07T23:48:42.263Z,99031.53
2018-08-07T23:51:12.907Z,99020.04
2018-08-07T23:53:43.159Z,99012.50
2018-08-07T23:56:13.131Z,99018.48
2018-08-07T23:58:45.910Z,99005.53
